Time;durP1;ratioP1;P1;durP2;ratioP2;P2;SDS_P1;SDS_P2;PMS_P1;PMS_P2;Temp;Humidity;BMP_temperature;BMP_pressure;BME280_temperature;BME280_humidity;BME280_pressure;Samples;Min_cycle;Max_cycle;Signal;HPM_P1;HPM_P2
2022/05/19 00:01:52;;;;;;;6.17;2.50;;;;;;;13.74;51.23;96155.94;4975160;28;20454;-71
2022/05/19 00:04:19;;;;;;;2.73;2.33;;;;;;;13.74;51.10;96160.44;4974548;28;20427;-70
2022/05/19 00:06:46;;;;;;;3.83;2.23;;;;;;;14.21;51.11;96156.25;4975633;28;20826;-70
2022/05/19 00:09:14;;;;;;;10.57;2.50;;;;;;;14.27;50.81;96154.50;4976462;28;20446;-71
2022/05/19 00:11:42;;;;;;;2.50;2.07;;;;;;;14.52;49.11;96136.28;4976476;28;20446;-70
2022/05/19 00:14:09;;;;;;;7.70;2.20;;;;;;;14.59;49.12;96147.44;4976794;28;20497;-70
2022/05/19 00:16:37;;;;;;;4.87;2.30;;;;;;;14.69;48.22;96143.03;4976638;28;20482;-70
2022/05/19 00:19:04;;;;;;;4.90;2.20;;;;;;;14.62;48.75;96142.44;4975935;28;20474;-72
2022/05/19 00:21:32;;;;;;;2.53;2.00;;;;;;;14.84;48.77;96151.09;4975173;28;20473;-72
2022/05/19 00:23:59;;;;;;;3.40;2.10;;;;;;;14.96;48.29;96141.16;4972565;28;20482;-70
2022/05/19 00:26:26;;;;;;;8.27;2.23;;;;;;;14.37;48.51;96146.69;4971395;28;20877;-70
2022/05/19 00:28:53;;;;;;;11.20;2.30;;;;;;;14.35;48.82;96152.22;4971543;28;20445;-70
2022/05/19 00:31:19;;;;;;;2.23;2.03;;;;;;;14.06;49.11;96156.06;4970871;28;20459;-71
2022/05/19 00:33:46;;;;;;;4.00;2.00;;;;;;;14.11;48.47;96150.84;4970997;28;20439;-71
2022/05/19 00:36:18;;;;;;;4.00;2.00;;;;;;;14.44;48.58;96163.91;4970991;28;20458;-68
2022/05/19 00:38:46;;;;;;;8.60;2.13;;;;;;;14.29;49.40;96161.09;4971061;28;21068;-70
2022/05/19 00:41:14;;;;;;;5.30;2.40;;;;;;;14.23;49.30;96164.72;4971343;28;20520;-70
2022/05/19 00:44:04;;;;;;;4.77;2.07;;;;;;;14.35;49.03;96167.22;4971146;28;20542;-70
2022/05/19 00:46:39;;;;;;;3.57;2.30;;;;;;;14.29;49.25;96162.97;4970791;28;20447;-69
2022/05/19 00:49:31;;;;;;;2.67;1.80;;;;;;;14.30;49.27;96167.97;4971067;28;20434;-69
2022/05/19 00:52:22;;;;;;;5.27;2.00;;;;;;;14.43;48.99;96175.50;4970863;28;20899;-70
2022/05/19 00:55:04;;;;;;;6.77;2.23;;;;;;;14.48;48.77;96175.56;4972459;28;20435;-70
2022/05/19 00:57:35;;;;;;;2.43;1.70;;;;;;;14.68;48.22;96173.13;4970783;28;20490;-71
2022/05/19 01:00:17;;;;;;;7.77;2.50;;;;;;;14.68;47.40;96173.13;4970872;28;20465;-68
2022/05/19 01:02:58;;;;;;;9.43;2.50;;;;;;;14.44;48.68;96182.38;4954068;28;20478;-70
2022/05/19 01:05:36;;;;;;;4.13;3.10;;;;;;;14.42;48.76;96175.72;4970566;28;20446;-70
2022/05/19 01:08:12;;;;;;;11.43;3.57;;;;;;;14.30;49.59;96191.72;4970160;28;20969;-71
2022/05/19 01:10:41;;;;;;;8.57;4.40;;;;;;;14.02;50.08;96194.50;4972807;28;20449;-71
2022/05/19 01:13:11;;;;;;;4.40;3.67;;;;;;;14.30;49.33;96191.72;4974693;28;20442;-72
2022/05/19 01:15:41;;;;;;;6.10;3.97;;;;;;;14.06;50.41;96195.59;4974346;28;20906;-71
2022/05/19 01:18:10;;;;;;;7.40;3.90;;;;;;;14.22;50.05;96195.53;4974253;28;20438;-71
2022/05/19 01:20:39;;;;;;;7.20;4.07;;;;;;;13.91;50.77;96195.41;4974587;28;20478;-71
2022/05/19 01:23:25;;;;;;;6.93;3.80;;;;;;;14.03;50.37;96198.75;4974351;28;20614;-70
2022/05/19 01:26:20;;;;;;;4.00;3.60;;;;;;;14.31;49.95;96188.03;4974054;28;20434;-71
2022/05/19 01:28:51;;;;;;;5.23;3.60;;;;;;;14.29;49.83;96194.59;4974266;28;20457;-69
2022/05/19 01:31:37;;;;;;;5.27;3.57;;;;;;;14.39;49.20;96179.69;4973951;28;20450;-71
2022/05/19 01:34:07;;;;;;;4.50;3.50;;;;;;;14.42;49.54;96189.72;4973962;28;20455;-71
2022/05/19 01:36:35;;;;;;;7.00;3.37;;;;;;;14.24;50.57;96192.66;4973970;28;20824;-70
2022/05/19 01:39:19;;;;;;;4.00;3.60;;;;;;;14.16;50.08;96199.16;4974213;28;20883;-72
2022/05/19 01:42:20;;;;;;;9.77;3.60;;;;;;;14.24;50.18;96204.00;4974453;28;20442;-69
2022/05/19 01:45:19;;;;;;;4.93;3.40;;;;;;;14.40;49.64;96201.59;4974166;28;20586;-68
2022/05/19 01:48:00;;;;;;;4.67;3.40;;;;;;;14.21;50.63;96193.16;4947584;28;20655;-70
2022/05/19 01:50:38;;;;;;;6.70;4.10;;;;;;;14.46;50.13;96203.22;4974010;28;20438;-70
2022/05/19 01:53:17;;;;;;;5.87;4.83;;;;;;;14.13;53.42;96206.75;4973611;28;20450;-69
2022/05/19 01:56:09;;;;;;;13.07;5.93;;;;;;;14.32;52.91;96205.44;4973963;28;20452;-69
2022/05/19 01:58:45;;;;;;;7.73;5.67;;;;;;;14.25;52.26;96212.69;4973991;28;20450;-69
2022/05/19 02:01:15;;;;;;;6.90;5.80;;;;;;;14.26;52.57;96216.94;4973691;28;20545;-70
2022/05/19 02:04:07;;;;;;;6.43;5.83;;;;;;;14.21;52.84;96211.63;4973516;28;20537;-72
2022/05/19 02:06:55;;;;;;;9.73;5.10;;;;;;;14.24;51.24;96184.75;4973535;28;20439;-71
2022/05/19 02:09:28;;;;;;;5.77;4.77;;;;;;;14.29;51.68;96221.75;4973723;28;20431;-69
2022/05/19 02:11:57;;;;;;;4.40;4.00;;;;;;;14.32;52.04;96216.00;4973505;28;20451;-69
2022/05/19 02:14:33;;;;;;;6.37;3.80;;;;;;;14.22;51.53;96221.91;4973474;28;20908;-70
2022/05/19 02:17:04;;;;;;;5.30;3.70;;;;;;;14.16;51.62;96227.34;4973315;28;20464;-71
2022/05/19 02:19:35;;;;;;;4.23;3.40;;;;;;;14.73;50.39;96215.38;4973836;28;20434;-70
2022/05/19 02:22:05;;;;;;;4.10;3.40;;;;;;;14.53;50.55;96220.44;4978270;28;20485;-70
2022/05/19 02:24:37;;;;;;;4.07;3.20;;;;;;;14.42;50.44;96215.28;4974996;28;20493;-70
2022/05/19 02:27:33;;;;;;;4.53;3.40;;;;;;;14.36;50.44;96219.72;4973189;28;20473;-70
2022/05/19 02:30:03;;;;;;;9.07;4.13;;;;;;;13.96;51.27;96219.19;4955966;28;20845;-70
2022/05/19 02:32:30;;;;;;;12.50;4.00;;;;;;;13.97;50.91;96221.59;4973516;28;20454;-70
2022/05/19 02:34:56;;;;;;;5.23;3.90;;;;;;;13.36;51.83;96231.50;4973430;28;20450;-70
2022/05/19 02:37:23;;;;;;;8.70;4.83;;;;;;;13.01;52.38;96208.81;4972862;28;20447;-71
2022/05/19 02:39:50;;;;;;;9.47;3.80;;;;;;;13.72;51.79;96231.00;4973200;28;20455;-71
2022/05/19 02:42:17;;;;;;;5.67;3.60;;;;;;;13.99;51.36;96227.44;4972583;28;20951;-71
2022/05/19 02:44:44;;;;;;;5.37;3.90;;;;;;;14.28;50.76;96220.16;4972806;28;20992;-71
2022/05/19 02:47:11;;;;;;;11.47;4.00;;;;;;;14.26;50.76;96214.31;4972446;28;20524;-71
2022/05/19 02:49:37;;;;;;;7.77;4.00;;;;;;;13.91;51.53;96198.03;4972843;28;20914;-70
2022/05/19 02:52:04;;;;;;;8.63;3.63;;;;;;;13.97;51.61;96223.44;4972868;28;20505;-70
2022/05/19 02:54:32;;;;;;;7.47;4.20;;;;;;;13.88;52.38;96220.44;4972765;28;20463;-68
2022/05/19 02:56:58;;;;;;;6.60;3.87;;;;;;;14.48;50.61;96224.88;4973194;28;20501;-70
2022/05/19 02:59:25;;;;;;;6.70;4.00;;;;;;;14.25;50.98;96220.59;4972843;28;20478;-68
2022/05/19 03:01:52;;;;;;;10.20;7.40;;;;;;;13.67;51.97;96223.00;4972834;28;20431;-69
2022/05/19 03:04:20;;;;;;;11.20;7.37;;;;;;;13.98;52.30;96235.56;4972467;28;20863;-69
2022/05/19 03:06:47;;;;;;;9.13;7.63;;;;;;;14.10;54.22;96228.34;4973069;28;20505;-69
2022/05/19 03:09:14;;;;;;;13.47;8.57;;;;;;;14.28;50.92;96228.06;4972617;28;20446;-68
2022/05/19 03:11:40;;;;;;;9.87;7.80;;;;;;;14.28;50.78;96219.34;4972275;28;20446;-67
2022/05/19 03:14:07;;;;;;;11.73;7.90;;;;;;;14.19;51.63;96216.34;4972431;28;20454;-68
2022/05/19 03:16:34;;;;;;;8.63;7.83;;;;;;;14.16;52.27;96229.97;4972556;28;20441;-68
2022/05/19 03:19:01;;;;;;;10.23;8.50;;;;;;;14.09;52.09;96232.00;4972379;28;20442;-70
2022/05/19 03:21:28;;;;;;;11.67;7.83;;;;;;;13.95;51.97;96220.22;4972201;28;20466;-69
2022/05/19 03:23:55;;;;;;;10.53;7.67;;;;;;;14.19;51.76;96237.41;4972355;28;20862;-68
2022/05/19 03:26:22;;;;;;;8.90;8.00;;;;;;;14.17;51.28;96231.59;4972139;28;20431;-71
2022/05/19 03:28:52;;;;;;;10.50;8.20;;;;;;;14.21;50.53;96233.47;4971904;28;20988;-70
2022/05/19 03:31:19;;;;;;;13.53;7.50;;;;;;;14.15;51.16;96241.59;4972138;28;20501;-70
2022/05/19 03:33:46;;;;;;;10.10;8.00;;;;;;;14.37;50.21;96237.16;4971797;28;20457;-69
2022/05/19 03:36:14;;;;;;;11.60;8.70;;;;;;;13.73;52.06;96251.81;4971893;28;20797;-68
2022/05/19 03:38:41;;;;;;;9.53;8.43;;;;;;;13.72;53.08;96259.97;4971883;28;20545;-69
2022/05/19 03:41:08;;;;;;;11.67;7.50;;;;;;;13.57;53.86;96250.00;4971832;28;20451;-68
2022/05/19 03:43:35;;;;;;;12.10;7.93;;;;;;;13.97;52.40;96260.31;4971892;28;20478;-70
2022/05/19 03:46:02;;;;;;;10.20;8.70;;;;;;;14.05;53.14;96262.56;4971245;28;20455;-70
2022/05/19 03:48:34;;;;;;;10.73;9.03;;;;;;;13.88;54.04;96262.59;4973190;28;20454;-69
2022/05/19 03:51:08;;;;;;;10.47;7.97;;;;;;;13.98;53.09;96272.44;4970121;28;20797;-69
2022/05/19 03:53:35;;;;;;;12.73;7.90;;;;;;;13.97;52.90;96265.59;4973205;28;20448;-68
2022/05/19 03:56:02;;;;;;;12.13;8.10;;;;;;;13.89;53.44;96279.16;4970079;28;20451;-68
2022/05/19 03:58:29;;;;;;;10.47;7.67;;;;;;;14.00;52.94;96267.72;4970036;28;20465;-70
2022/05/19 04:00:56;;;;;;;11.90;8.07;;;;;;;13.74;53.60;96284.25;4969781;28;20438;-69
2022/05/19 04:03:23;;;;;;;11.07;7.73;;;;;;;14.04;53.05;96263.56;4970742;28;20505;-70
2022/05/19 04:05:50;;;;;;;9.67;7.43;;;;;;;13.72;52.99;96279.19;4971287;28;21048;-69
2022/05/19 04:08:17;;;;;;;9.57;6.77;;;;;;;14.01;51.75;96271.97;4971475;28;20431;-72
2022/05/19 04:10:49;;;;;;;11.53;7.23;;;;;;;14.06;51.40;96283.38;4971620;28;20449;-72
2022/05/19 04:13:16;;;;;;;11.10;8.63;;;;;;;14.17;50.73;96286.94;4971170;28;20506;-68
2022/05/19 04:15:43;;;;;;;8.97;8.00;;;;;;;14.35;50.26;96293.78;4971168;28;20435;-68
2022/05/19 04:18:11;;;;;;;17.70;8.57;;;;;;;14.48;50.21;96283.69;4970810;28;20442;-71
2022/05/19 04:20:38;;;;;;;11.13;8.10;;;;;;;14.41;50.26;96298.91;4971459;28;20997;-74
2022/05/19 04:23:04;;;;;;;9.67;8.23;;;;;;;14.05;51.60;96294.19;4971285;28;20467;-71
2022/05/19 04:25:33;;;;;;;10.23;7.73;;;;;;;14.11;51.73;96285.28;4971364;28;20538;-76
2022/05/19 04:28:00;;;;;;;12.27;8.30;;;;;;;14.15;51.96;96295.13;4970903;28;20434;-70
2022/05/19 04:30:27;;;;;;;15.97;7.47;;;;;;;14.03;52.14;96277.81;4978537;28;20456;-69
2022/05/19 04:32:56;;;;;;;11.33;8.57;;;;;;;14.02;52.54;96295.44;4990604;28;20468;-69
2022/05/19 04:35:24;;;;;;;15.27;9.40;;;;;;;13.77;53.19;96302.19;4989648;28;20543;-71
2022/05/19 04:37:51;;;;;;;9.77;8.57;;;;;;;13.72;53.63;96297.63;4989955;28;20437;-70
2022/05/19 04:40:19;;;;;;;12.93;9.40;;;;;;;13.71;52.63;96287.34;4990484;28;20516;-72
2022/05/19 04:42:45;;;;;;;17.97;10.23;;;;;;;14.12;52.43;96300.06;4990595;28;20481;-68
2022/05/19 04:45:16;;;;;;;18.23;14.13;;;;;;;13.96;52.97;96296.41;4989653;28;20449;-70
2022/05/19 04:47:43;;;;;;;34.20;27.83;;;;;;;14.53;52.37;96301.41;4990220;28;20496;-70
2022/05/19 04:50:11;;;;;;;31.17;25.50;;;;;;;14.34;52.00;96297.50;4990868;28;20487;-69
2022/05/19 04:52:38;;;;;;;15.77;10.63;;;;;;;14.04;53.36;96303.13;4990229;28;20445;-70
2022/05/19 04:55:09;;;;;;;13.13;9.97;;;;;;;14.54;51.29;96303.81;4989932;28;20452;-70
2022/05/19 04:57:37;;;;;;;16.17;9.93;;;;;;;14.92;49.08;96295.00;4990306;28;20442;-70
2022/05/19 05:00:07;;;;;;;17.13;9.70;;;;;;;14.78;49.59;96296.44;4990273;28;20445;-71
2022/05/19 05:02:34;;;;;;;12.70;10.43;;;;;;;14.66;50.10;96304.47;4990241;28;20461;-71
2022/05/19 05:05:06;;;;;;;15.53;10.53;;;;;;;14.87;49.20;96302.88;4990516;28;20528;-71
2022/05/19 05:07:33;;;;;;;16.20;11.43;;;;;;;15.08;48.81;96305.47;4989920;28;20449;-69
2022/05/19 05:10:01;;;;;;;120.90;85.03;;;;;;;15.39;48.54;96305.75;4989829;28;20500;-71
2022/05/19 05:12:28;;;;;;;17.37;12.87;;;;;;;14.65;50.48;96316.06;4989860;28;20451;-71
2022/05/19 05:14:54;;;;;;;20.40;14.40;;;;;;;14.80;50.40;96318.88;4989883;28;20524;-70
2022/05/19 05:17:21;;;;;;;16.67;12.20;;;;;;;15.29;49.41;96306.44;4989992;28;20441;-70
2022/05/19 05:19:48;;;;;;;13.50;10.60;;;;;;;15.55;48.46;96310.13;4989937;28;21018;-71
2022/05/19 05:22:15;;;;;;;15.23;10.80;;;;;;;14.89;49.72;96322.69;4989552;28;20908;-68
2022/05/19 05:24:42;;;;;;;14.13;10.97;;;;;;;14.91;49.20;96309.22;4978070;28;21016;-71
2022/05/19 05:27:09;;;;;;;15.40;11.17;;;;;;;15.09;48.23;96312.34;4970534;28;20438;-71
2022/05/19 05:29:38;;;;;;;13.80;10.47;;;;;;;15.16;48.55;96307.66;4970805;28;20437;-74
2022/05/19 05:32:05;;;;;;;17.27;10.13;;;;;;;15.41;47.64;96303.69;4968009;28;20612;-72
2022/05/19 05:34:32;;;;;;;12.53;10.03;;;;;;;15.46;48.04;96316.94;4967834;28;20865;-72
2022/05/19 05:36:59;;;;;;;16.60;10.83;;;;;;;14.79;48.93;96319.13;4968655;28;20813;-73
2022/05/19 05:39:26;;;;;;;13.57;11.47;;;;;;;14.51;49.06;96325.41;4969007;28;20442;-74
2022/05/19 05:41:58;;;;;;;12.67;10.40;;;;;;;14.23;50.69;96328.94;4970650;28;20914;-72
2022/05/19 05:44:25;;;;;;;17.70;11.60;;;;;;;14.59;49.90;96311.78;4973233;28;20478;-71
2022/05/19 05:46:52;;;;;;;15.27;11.97;;;;;;;14.67;49.32;96334.31;4977156;28;20438;-73
2022/05/19 05:49:20;;;;;;;17.13;12.27;;;;;;;14.78;49.17;96330.75;4976149;28;20530;-72
2022/05/19 05:51:48;;;;;;;15.60;11.73;;;;;;;15.06;49.08;96327.88;4970362;28;20446;-71
2022/05/19 05:54:15;;;;;;;13.43;11.93;;;;;;;14.95;49.38;96316.41;4970242;28;20521;-74
2022/05/19 05:56:42;;;;;;;16.40;12.20;;;;;;;14.54;50.77;96327.56;4971446;28;20454;-72
2022/05/19 05:59:09;;;;;;;21.10;13.30;;;;;;;14.37;50.95;96332.06;4973562;28;20897;-74
2022/05/19 06:01:36;;;;;;;15.97;13.50;;;;;;;14.93;50.89;96320.34;4973881;28;20454;-72
2022/05/19 06:04:03;;;;;;;20.17;13.30;;;;;;;14.76;50.89;96324.91;4973934;28;20572;-74
2022/05/19 06:06:30;;;;;;;15.30;12.50;;;;;;;15.15;50.87;96331.66;4973809;28;20517;-74
2022/05/19 06:08:57;;;;;;;19.17;14.00;;;;;;;15.41;52.06;96332.75;4973967;28;20456;-73
2022/05/19 06:11:29;;;;;;;21.17;13.63;;;;;;;15.54;51.06;96327.06;4973614;28;20536;-73
2022/05/19 06:13:55;;;;;;;17.70;12.70;;;;;;;15.05;50.20;96327.06;4974152;28;20441;-74
2022/05/19 06:16:22;;;;;;;20.67;13.10;;;;;;;15.43;49.55;96322.72;4973889;28;20574;-74
2022/05/19 06:18:49;;;;;;;15.97;13.23;;;;;;;15.53;49.23;96323.59;4973986;28;20973;-75
2022/05/19 06:21:16;;;;;;;20.07;13.50;;;;;;;16.01;49.17;96325.31;4973481;28;20486;-76
2022/05/19 06:23:43;;;;;;;19.23;13.50;;;;;;;15.08;51.13;96334.53;4973494;28;20462;-72
2022/05/19 06:26:11;;;;;;;20.57;12.70;;;;;;;15.45;50.51;96331.22;4973387;28;20860;-75
2022/05/19 06:28:38;;;;;;;26.80;13.30;;;;;;;16.18;48.82;96336.53;4973313;28;21055;-75
2022/05/19 06:31:05;;;;;;;22.60;13.90;;;;;;;16.47;47.31;96324.56;4973119;28;20446;-75
2022/05/19 06:33:35;;;;;;;18.83;13.73;;;;;;;16.22;48.74;96321.75;4973289;28;20438;-73
2022/05/19 06:36:04;;;;;;;22.50;13.63;;;;;;;16.74;47.83;96325.22;4973202;28;20450;-73
2022/05/19 06:38:31;;;;;;;19.83;12.27;;;;;;;16.25;47.42;96337.09;4973102;28;20521;-74
2022/05/19 06:43:47;;;;;;;19.00;9.90;;;;;;;16.77;46.25;96332.63;4973769;28;20473;-77
2022/05/19 06:46:14;;;;;;;20.80;10.33;;;;;;;16.95;46.74;96318.91;4973115;28;20449;-75
2022/05/19 06:48:41;;;;;;;20.80;10.20;;;;;;;16.42;48.56;96326.34;4973379;28;20453;-76
2022/05/19 06:51:08;;;;;;;18.53;10.93;;;;;;;16.84;47.41;96325.22;4973354;28;20490;-76
2022/05/19 06:53:48;;;;;;;17.87;10.73;;;;;;;17.29;46.22;96323.75;4972897;28;21161;-73
2022/05/19 06:56:14;;;;;;;14.43;9.73;;;;;;;16.24;46.43;96325.72;4972653;28;20434;-73
2022/05/19 06:58:41;;;;;;;17.07;10.80;;;;;;;16.30;46.98;96304.56;4972857;28;20461;-75
2022/05/19 07:01:08;;;;;;;19.37;10.40;;;;;;;16.75;47.67;96316.19;4972764;28;20450;-78
2022/05/19 07:03:36;;;;;;;12.93;10.20;;;;;;;17.08;46.18;96326.38;4972784;28;20513;-73
2022/05/19 07:06:03;;;;;;;14.80;9.97;;;;;;;17.49;46.31;96326.47;4972666;28;20790;-74
2022/05/19 07:08:29;;;;;;;12.97;8.33;;;;;;;17.17;47.22;96321.34;4972287;28;20996;-72
2022/05/19 07:10:56;;;;;;;19.53;9.63;;;;;;;17.74;46.17;96307.94;4972425;28;20443;-71
2022/05/19 07:13:24;;;;;;;14.80;8.37;;;;;;;17.89;46.15;96334.44;4972763;28;20446;-75
2022/05/19 07:15:50;;;;;;;14.80;8.33;;;;;;;18.05;44.59;96328.88;4972378;28;20446;-73
2022/05/19 07:18:17;;;;;;;12.83;8.03;;;;;;;18.11;45.30;96333.13;4972463;28;20454;-73
2022/05/19 07:20:44;;;;;;;15.93;8.17;;;;;;;17.86;44.63;96329.69;4971924;28;20473;-75
2022/05/19 07:23:19;;;;;;;13.87;8.03;;;;;;;17.94;42.73;96319.31;4972466;28;20509;-78
2022/05/19 07:25:47;;;;;;;16.37;8.20;;;;;;;17.79;44.05;96321.97;4972258;28;20486;-75
2022/05/19 07:28:14;;;;;;;17.17;10.00;;;;;;;18.10;43.76;96326.19;4972566;28;20466;-74
2022/05/19 07:30:43;;;;;;;13.90;7.30;;;;;;;18.14;42.98;96326.47;4972548;28;20442;-73
2022/05/19 07:33:11;;;;;;;10.57;8.20;;;;;;;18.17;43.30;96325.94;4972219;28;20431;-74
2022/05/19 07:35:40;;;;;;;13.07;7.40;;;;;;;17.73;44.11;96328.38;4972056;28;20501;-74
2022/05/19 07:38:07;;;;;;;14.50;7.30;;;;;;;18.17;41.48;96320.63;4972151;28;20442;-76
2022/05/19 07:40:34;;;;;;;14.93;6.63;;;;;;;18.38;42.45;96313.41;4971932;28;20461;-73
2022/05/19 07:43:46;;;;;;;10.80;6.90;;;;;;;18.78;40.93;96314.09;4972225;28;20501;-76
2022/05/19 07:45:48;;;;;;;15.33;8.67;;;;;;;19.09;42.64;96315.53;4961440;28;20502;-72
2022/05/19 07:48:15;;;;;;;16.30;7.17;;;;;;;19.14;42.25;96301.44;4972071;28;20457;-74
2022/05/19 07:50:42;;;;;;;19.63;6.67;;;;;;;19.14;41.15;96302.22;4971734;28;20686;-75
2022/05/19 07:53:10;;;;;;;11.37;6.37;;;;;;;18.79;41.01;96310.41;4971572;28;20811;-73
2022/05/19 07:55:37;;;;;;;10.80;5.63;;;;;;;18.77;38.65;96307.22;4971260;28;20457;-75
2022/05/19 07:58:04;;;;;;;8.87;4.53;;;;;;;18.53;36.76;96311.53;4972059;28;20988;-72
2022/05/19 08:00:31;;;;;;;9.97;5.20;;;;;;;18.54;37.06;96309.69;4971747;28;20941;-76
2022/05/19 08:03:00;;;;;;;9.30;5.47;;;;;;;19.01;39.20;96302.06;4971682;28;20505;-74
2022/05/19 08:05:27;;;;;;;8.30;4.97;;;;;;;19.42;37.62;96305.25;4971612;28;20494;-71
2022/05/19 08:07:54;;;;;;;11.63;5.57;;;;;;;19.14;35.89;96302.22;4971666;28;20442;-77
2022/05/19 08:10:23;;;;;;;10.10;5.57;;;;;;;20.08;36.17;96296.50;4971367;28;20450;-73
2022/05/19 08:15:44;;;;;;;8.30;5.10;;;;;;;18.90;35.37;96301.28;4971204;28;20830;-74
2022/05/19 08:18:19;;;;;;;14.17;5.47;;;;;;;18.07;36.27;96302.06;4971316;28;20984;-74
2022/05/19 08:21:08;;;;;;;8.70;4.90;;;;;;;19.56;36.76;96298.28;4970258;28;20485;-72
2022/05/19 08:23:45;;;;;;;12.57;5.07;;;;;;;19.78;37.24;96290.66;4971245;28;20481;-74
2022/05/19 08:26:12;;;;;;;9.43;5.07;;;;;;;19.52;36.78;96297.22;4971586;28;20541;-72
2022/05/19 08:28:46;;;;;;;9.40;5.10;;;;;;;20.22;35.47;96283.31;4971776;28;20542;-75
2022/05/19 08:31:22;;;;;;;8.87;4.80;;;;;;;19.89;34.39;96298.25;4971403;28;20447;-72
2022/05/19 08:33:56;;;;;;;9.37;3.60;;;;;;;19.57;31.38;96297.19;4971021;28;20931;-74
2022/05/19 08:36:25;;;;;;;7.30;4.00;;;;;;;19.70;32.90;96277.94;4970808;28;20465;-73
2022/05/19 08:38:52;;;;;;;10.80;3.90;;;;;;;19.39;33.51;96292.53;4970993;28;20434;-77
2022/05/19 08:41:36;;;;;;;12.93;4.37;;;;;;;20.10;33.12;96282.91;4971287;28;20482;-75
2022/05/19 08:44:22;;;;;;;5.37;3.27;;;;;;;20.28;34.42;96284.06;4970737;28;20474;-74
2022/05/19 08:46:52;;;;;;;6.37;2.80;;;;;;;20.72;34.03;96260.66;4970940;28;20534;-73
2022/05/19 08:49:26;;;;;;;5.77;3.40;;;;;;;20.41;30.96;96272.75;4971480;28;20454;-75
2022/05/19 08:52:10;;;;;;;19.60;3.20;;;;;;;20.13;30.70;96279.66;4971111;28;20824;-73
2022/05/19 08:54:39;;;;;;;8.97;3.00;;;;;;;20.69;31.72;96272.66;4971554;28;20533;-74
2022/05/19 08:57:21;;;;;;;4.63;2.70;;;;;;;20.38;30.32;96258.16;4971423;28;20447;-74
2022/05/19 09:00:15;;;;;;;5.23;2.20;;;;;;;20.56;28.00;96265.38;4971325;28;20422;-76
2022/05/19 09:02:54;;;;;;;5.80;2.20;;;;;;;20.80;28.65;96266.13;4971480;28;20430;-76
2022/05/19 09:05:39;;;;;;;13.23;2.17;;;;;;;20.61;29.75;96262.66;4971423;28;20497;-75
2022/05/19 09:08:12;;;;;;;12.80;3.17;;;;;;;21.20;30.59;96258.69;4975406;28;20438;-74
2022/05/19 09:10:51;;;;;;;8.30;2.37;;;;;;;21.48;29.87;96253.19;4980790;28;20501;-75
2022/05/19 09:13:34;;;;;;;6.47;2.40;;;;;;;21.17;28.23;96247.53;4970670;28;20446;-74
2022/05/19 09:16:23;;;;;;;8.50;2.40;;;;;;;21.61;28.39;96233.78;4970589;28;20454;-75
2022/05/19 09:19:01;;;;;;;5.73;2.33;;;;;;;21.78;28.70;96244.69;4970635;28;20462;-76
2022/05/19 09:21:29;;;;;;;3.30;2.23;;;;;;;21.43;26.25;96236.47;4969877;28;21013;-75
2022/05/19 09:23:55;;;;;;;3.53;1.87;;;;;;;21.98;27.42;96238.25;4970006;28;20509;-74
2022/05/19 09:26:45;;;;;;;5.13;2.00;;;;;;;22.11;29.76;96237.47;4970369;28;20488;-73
2022/05/19 09:29:16;;;;;;;8.87;1.97;;;;;;;22.02;28.15;96233.91;4971083;28;20434;-74
2022/05/19 09:31:52;;;;;;;7.50;1.80;;;;;;;22.38;26.94;96229.47;4973487;28;20446;-75
2022/05/19 09:34:23;;;;;;;6.97;1.90;;;;;;;21.91;26.54;96232.50;4974561;28;20437;-75
2022/05/19 09:37:36;;;;;;;3.10;1.53;;;;;;;22.20;28.21;96225.00;4957140;28;20442;-74
2022/05/19 09:40:11;;;;;;;3.43;1.80;;;;;;;22.23;27.91;96229.75;4956826;28;20446;-75
2022/05/19 09:43:06;;;;;;;7.33;2.47;;;;;;;22.27;28.01;96224.59;4974753;28;20206;-74
2022/05/19 09:45:41;;;;;;;2.90;1.70;;;;;;;22.30;27.97;96190.09;4974444;28;20587;-74
2022/05/19 09:48:12;;;;;;;6.70;2.13;;;;;;;22.77;28.05;96219.06;4974398;28;20460;-73
2022/05/19 09:50:47;;;;;;;8.67;5.43;;;;;;;22.51;27.11;96219.84;4974548;28;20450;-72
2022/05/19 09:53:26;;;;;;;3.43;2.07;;;;;;;22.97;28.42;96215.94;4974066;28;20465;-75
2022/05/19 09:56:00;;;;;;;2.80;2.20;;;;;;;23.10;27.08;96223.13;4974254;28;20442;-74
2022/05/19 09:58:38;;;;;;;3.97;1.73;;;;;;;22.50;25.81;96203.03;4974073;28;20191;-72
2022/05/19 10:01:17;;;;;;;3.90;1.87;;;;;;;22.75;26.41;96209.78;4974155;28;20222;-74
2022/05/19 10:03:50;;;;;;;12.27;2.90;;;;;;;22.66;25.47;96215.00;4974157;28;20234;-73
2022/05/19 10:06:21;;;;;;;2.77;1.67;;;;;;;22.09;25.58;96212.94;4973920;28;20234;-72
2022/05/19 10:08:58;;;;;;;4.13;1.60;;;;;;;22.43;25.99;96213.34;4956950;28;20217;-75
2022/05/19 10:11:29;;;;;;;4.80;1.70;;;;;;;22.75;26.35;96199.88;4973960;28;20720;-75
2022/05/19 10:14:06;;;;;;;4.53;1.70;;;;;;;22.82;26.59;96205.59;4973686;28;20188;-73
2022/05/19 10:16:56;;;;;;;8.70;1.67;;;;;;;23.19;26.06;96193.00;4974144;28;20197;-74
2022/05/19 10:19:36;;;;;;;9.43;2.43;;;;;;;22.69;27.29;96194.94;4973582;28;20199;-74
2022/05/19 10:22:40;;;;;;;4.50;1.97;;;;;;;23.14;27.42;96192.03;4973282;28;20297;-73
2022/05/19 10:25:17;;;;;;;4.27;1.40;;;;;;;23.80;25.38;96187.75;4973375;28;20230;-74
2022/05/19 10:31:12;;;;;;;3.33;1.60;;;;;;;23.31;26.43;96169.19;4973520;28;20253;-75
2022/05/19 10:34:15;;;;;;;4.60;1.73;;;;;;;24.03;25.84;96165.22;4972847;28;20262;-74
2022/05/19 10:37:33;;;;;;;4.97;2.00;;;;;;;24.09;27.50;96169.31;4972990;28;20210;-74
2022/05/19 10:40:23;;;;;;;8.93;1.83;;;;;;;24.13;26.09;96175.66;4960707;28;20203;-75
2022/05/19 10:43:25;;;;;;;3.63;1.70;;;;;;;24.08;26.44;96146.34;4972783;28;20207;-74
2022/05/19 10:45:56;;;;;;;4.73;2.27;;;;;;;24.28;24.51;96155.69;4960163;28;20325;-74
2022/05/19 10:48:57;;;;;;;3.10;1.80;;;;;;;24.32;24.88;96156.66;4973090;28;20206;-77
2022/05/19 10:51:45;;;;;;;7.50;1.63;;;;;;;24.51;24.68;96147.22;4972986;28;20230;-75
2022/05/19 10:54:33;;;;;;;6.03;1.70;;;;;;;23.35;24.23;96154.13;4972944;28;20593;-74
2022/05/19 10:57:28;;;;;;;3.53;1.70;;;;;;;22.99;24.78;96162.97;4972912;28;20222;-77
2022/05/19 11:00:21;;;;;;;5.70;1.80;;;;;;;22.75;25.18;96157.13;4973295;28;20222;-76
2022/05/19 11:03:10;;;;;;;3.53;1.90;;;;;;;23.21;24.17;96158.72;4972977;28;20203;-77
2022/05/19 11:05:51;;;;;;;3.67;1.70;;;;;;;22.49;25.22;96169.41;4972666;28;20246;-74
2022/05/19 11:08:37;;;;;;;6.17;2.00;;;;;;;23.41;24.44;96142.97;4972698;28;20230;-76
2022/05/19 11:11:22;;;;;;;2.43;1.60;;;;;;;24.10;25.12;96146.81;4973212;28;20289;-74
2022/05/19 11:13:52;;;;;;;4.10;1.70;;;;;;;24.12;23.32;96141.94;4972655;28;20195;-75
2022/05/19 11:16:56;;;;;;;6.33;1.80;;;;;;;23.68;23.93;96142.03;4972731;28;20195;-74
2022/05/19 11:19:39;;;;;;;3.60;1.70;;;;;;;24.44;24.07;96125.47;4972730;28;20666;-74
2022/05/19 11:22:11;;;;;;;2.87;1.83;;;;;;;24.48;23.52;96121.06;4972855;28;20273;-74
2022/05/19 11:27:50;;;;;;;7.13;2.10;;;;;;;23.72;24.18;96118.94;4972957;28;20294;-76
2022/05/19 11:30:29;;;;;;;9.03;1.70;;;;;;;23.59;24.22;96122.47;4972500;28;20202;-76
2022/05/19 11:33:00;;;;;;;4.00;2.07;;;;;;;23.74;24.15;96119.41;4972568;28;20286;-77
2022/05/19 11:35:38;;;;;;;9.03;2.20;;;;;;;23.57;24.12;96096.03;4972407;28;20662;-75
2022/05/19 11:38:46;;;;;;;5.57;2.00;;;;;;;24.37;25.26;96106.38;4971842;28;20225;-74
2022/05/19 11:41:31;;;;;;;4.00;1.90;;;;;;;24.91;23.26;96105.81;4972294;28;20659;-76
2022/05/19 11:44:12;;;;;;;2.23;1.80;;;;;;;24.63;23.57;96096.50;4971914;28;20704;-75
2022/05/19 11:55:12;;;;;;;3.80;1.70;;;;;;;24.86;22.71;96103.28;4971940;28;20241;-74
2022/05/19 11:55:50;;;;;;;2.03;1.80;;;;;;;23.77;22.52;96081.31;4971018;28;20229;-72
2022/05/19 11:58:20;;;;;;;2.50;1.90;;;;;;;24.38;22.66;96081.16;4972167;28;20277;-74
2022/05/19 12:00:55;;;;;;;4.50;1.80;;;;;;;24.72;22.75;96081.22;4971891;28;20682;-76
2022/05/19 12:03:30;;;;;;;4.90;2.00;;;;;;;25.05;24.09;96068.88;4971688;28;20210;-75
2022/05/19 12:06:01;;;;;;;7.00;2.67;;;;;;;25.20;21.95;96070.25;4972121;28;20224;-73
2022/05/19 12:08:39;;;;;;;5.27;1.90;;;;;;;25.12;20.64;96052.31;4971987;28;20206;-73
2022/05/19 12:11:45;;;;;;;4.13;2.07;;;;;;;25.08;21.66;96051.34;4971924;28;20719;-75
2022/05/19 12:14:15;;;;;;;6.77;1.97;;;;;;;23.63;21.85;96069.94;4932780;28;20199;-73
2022/05/19 12:17:06;;;;;;;8.23;2.33;;;;;;;23.39;22.61;96058.78;4971434;28;20745;-73